createdAt,value
2023-04-22T00:01:43.396Z,60.99
2023-04-22T00:06:46.772Z,63.04
2023-04-22T00:11:49.976Z,64.59
2023-04-22T00:16:53.357Z,63.71
2023-04-22T00:21:56.907Z,66.17
2023-04-22T00:27:00.124Z,67.55
2023-04-22T00:32:03.848Z,68.25
2023-04-22T00:37:07.040Z,68.95
2023-04-22T00:42:10.730Z,69.66
2023-04-22T00:47:14.320Z,70.32
2023-04-22T00:52:17.585Z,71.03
2023-04-22T00:57:21.104Z,71.43
2023-04-22T01:02:25.574Z,69.38
2023-04-22T01:07:29.158Z,70.53
2023-04-22T01:12:32.065Z,71.06
2023-04-22T01:17:36.072Z,70.41
2023-04-22T01:22:45.741Z,70.80
2023-04-22T01:27:49.680Z,71.25
2023-04-22T01:32:53.389Z,71.49
2023-04-22T01:37:58.243Z,72.13
2023-04-22T01:43:02.163Z,72.79
2023-04-22T01:48:07.226Z,73.62
2023-04-22T01:53:11.923Z,74.12
2023-04-22T01:58:15.067Z,74.57
2023-04-22T02:03:18.209Z,75.43
2023-04-22T02:08:21.273Z,75.49
2023-04-22T02:13:24.484Z,74.49
2023-04-22T02:18:27.904Z,75.59
2023-04-22T02:23:31.472Z,76.00
2023-04-22T02:28:34.624Z,76.52
2023-04-22T02:33:37.855Z,76.74
2023-04-22T02:38:40.937Z,77.06
2023-04-22T02:43:46.526Z,77.22
2023-04-22T02:48:49.916Z,77.40
2023-04-22T02:53:53.320Z,77.67
2023-04-22T02:58:56.425Z,77.95
2023-04-22T03:04:00.187Z,78.36
2023-04-22T03:09:04.286Z,78.42
2023-04-22T03:14:07.380Z,78.17
2023-04-22T03:19:10.500Z,78.23
2023-04-22T03:24:13.902Z,78.40
2023-04-22T03:29:16.904Z,78.37
2023-04-22T03:34:20.021Z,77.83
2023-04-22T03:39:23.123Z,77.99
2023-04-22T03:44:26.194Z,78.07
2023-04-22T03:49:29.293Z,78.34
2023-04-22T03:54:32.432Z,78.29
2023-04-22T03:59:35.954Z,78.51
2023-04-22T04:04:39.571Z,78.71
2023-04-22T04:09:43.007Z,79.05
2023-04-22T04:14:46.093Z,79.42
2023-04-22T04:19:49.602Z,76.86
2023-04-22T04:24:52.909Z,69.46
2023-04-22T04:29:56.203Z,61.39
2023-04-22T04:35:00.251Z,56.13
2023-04-22T04:40:04.168Z,52.20
2023-04-22T04:45:09.606Z,47.67
2023-04-22T04:50:12.733Z,41.24
2023-04-22T04:55:16.730Z,38.96
2023-04-22T05:00:20.069Z,35.81
2023-04-22T05:05:23.180Z,33.92
2023-04-22T05:10:26.604Z,31.76
2023-04-22T05:15:30.310Z,30.09
2023-04-22T05:20:36.188Z,28.53
2023-04-22T05:25:40.434Z,28.74
2023-04-22T05:30:43.535Z,26.67
2023-04-22T05:35:46.937Z,26.26
2023-04-22T05:40:50.667Z,25.20
2023-04-22T05:45:53.793Z,24.86
2023-04-22T05:50:56.987Z,24.20
2023-04-22T05:56:00.320Z,24.68
2023-04-22T06:01:03.702Z,23.18
2023-04-22T06:06:07.721Z,22.14
2023-04-22T06:11:11.541Z,22.11
2023-04-22T06:16:14.651Z,21.43
2023-04-22T06:21:18.268Z,20.37
2023-04-22T06:26:21.881Z,20.54
2023-04-22T06:31:25.122Z,19.56
2023-04-22T06:36:30.473Z,18.81
2023-04-22T06:41:34.164Z,19.66
2023-04-22T06:46:39.765Z,17.84
2023-04-22T06:51:43.145Z,18.05
2023-04-22T06:56:46.580Z,17.14
2023-04-22T07:01:50.008Z,17.64
2023-04-22T07:06:53.951Z,17.09
2023-04-22T07:11:58.123Z,17.28
2023-04-22T07:17:01.337Z,16.97
2023-04-22T07:22:05.237Z,18.11
2023-04-22T07:27:08.915Z,17.40
2023-04-22T07:32:12.732Z,17.78
2023-04-22T07:37:16.217Z,17.53
2023-04-22T07:42:19.525Z,16.83
2023-04-22T07:47:23.154Z,15.81
2023-04-22T07:52:26.349Z,15.77
2023-04-22T07:57:29.643Z,16.32
2023-04-22T08:02:33.190Z,16.48
2023-04-22T08:07:36.591Z,17.15
2023-04-22T08:12:39.912Z,16.13
2023-04-22T08:17:43.644Z,16.13
2023-04-22T08:22:47.457Z,16.11
2023-04-22T08:27:52.599Z,15.29
2023-04-22T08:32:56.088Z,14.93
2023-04-22T08:37:59.320Z,16.58
2023-04-22T08:43:03.352Z,17.88
2023-04-22T08:48:09.806Z,15.96
2023-04-22T08:53:14.084Z,16.65
2023-04-22T08:58:18.203Z,16.49
2023-04-22T09:03:22.727Z,15.47
2023-04-22T09:08:26.862Z,15.05
2023-04-22T09:13:30.591Z,15.05
2023-04-22T09:18:41.269Z,14.63
2023-04-22T09:23:55.161Z,15.09
2023-04-22T09:29:00.935Z,15.20
2023-04-22T09:34:05.019Z,15.79
2023-04-22T09:39:08.950Z,16.10
2023-04-22T09:44:18.205Z,16.69
2023-04-22T09:49:22.022Z,16.32
2023-04-22T09:54:25.226Z,17.21
2023-04-22T09:59:30.067Z,16.71
2023-04-22T10:04:33.397Z,17.71
2023-04-22T10:09:37.314Z,18.94
2023-04-22T10:14:40.983Z,20.10
2023-04-22T10:19:47.818Z,22.34
2023-04-22T10:24:55.841Z,23.26
2023-04-22T10:29:58.946Z,24.35
2023-04-22T10:35:11.421Z,24.82
2023-04-22T10:40:19.100Z,25.15
2023-04-22T10:45:26.035Z,26.22
2023-04-22T10:50:33.022Z,26.84
2023-04-22T10:55:54.419Z,28.51
2023-04-22T11:01:03.375Z,28.55
2023-04-22T11:06:17.290Z,27.96
2023-04-22T11:11:20.840Z,29.43
2023-04-22T11:16:24.679Z,28.36
2023-04-22T11:21:28.167Z,30.31
2023-04-22T11:26:35.512Z,29.59
2023-04-22T11:31:39.112Z,30.22
2023-04-22T11:36:46.089Z,30.57
2023-04-22T11:41:49.292Z,30.59
2023-04-22T11:46:52.504Z,30.68
2023-04-22T11:51:57.178Z,29.70
2023-04-22T11:57:15.744Z,29.59
2023-04-22T12:02:19.090Z,29.66
2023-04-22T12:07:22.366Z,30.46
2023-04-22T12:12:28.964Z,30.86
2023-04-22T12:17:32.319Z,29.68
2023-04-22T12:22:36.765Z,30.65
2023-04-22T12:27:40.690Z,30.63
2023-04-22T12:32:44.104Z,30.13
2023-04-22T12:37:47.216Z,29.47
2023-04-22T12:42:50.451Z,29.21
2023-04-22T12:47:54.127Z,29.89
2023-04-22T12:52:57.453Z,29.62
2023-04-22T12:58:00.977Z,29.39
2023-04-22T13:03:04.376Z,30.93
2023-04-22T13:08:08.360Z,32.13
2023-04-22T13:18:18.056Z,30.44
2023-04-22T13:23:22.167Z,30.63
2023-04-22T13:28:26.149Z,30.56
2023-04-22T13:33:29.464Z,31.11
2023-04-22T13:38:44.793Z,30.37
2023-04-22T13:43:52.163Z,30.76
2023-04-22T13:48:57.024Z,31.00
2023-04-22T13:54:01.076Z,31.31
2023-04-22T13:59:04.449Z,30.90
2023-04-22T14:04:07.890Z,31.81
2023-04-22T14:09:11.897Z,31.00
2023-04-22T14:14:15.308Z,30.92
2023-04-22T14:19:19.078Z,31.38
2023-04-22T14:24:24.502Z,31.53
2023-04-22T14:29:30.462Z,31.69
2023-04-22T14:34:34.483Z,32.00
2023-04-22T14:39:37.807Z,32.26
2023-04-22T14:44:41.207Z,32.40
2023-04-22T14:49:44.415Z,32.24
2023-04-22T14:54:51.199Z,33.16
2023-04-22T14:59:55.028Z,33.17
2023-04-22T15:04:58.234Z,33.15
2023-04-22T15:10:02.413Z,33.29
2023-04-22T15:15:07.503Z,32.45
2023-04-22T15:20:12.412Z,33.07
2023-04-22T15:25:17.912Z,33.34
2023-04-22T15:30:21.455Z,33.40
2023-04-22T15:35:24.869Z,33.12
2023-04-22T15:40:28.067Z,33.26
2023-04-22T15:45:31.380Z,33.70
2023-04-22T15:50:35.092Z,34.57
2023-04-22T15:55:38.405Z,34.53
2023-04-22T16:00:43.712Z,34.73
2023-04-22T16:05:47.389Z,34.25
2023-04-22T16:10:51.575Z,34.40
2023-04-22T16:15:55.128Z,34.32
2023-04-22T16:21:00.517Z,34.87
2023-04-22T16:26:05.964Z,34.89
2023-04-22T16:31:10.930Z,35.45
2023-04-22T16:36:14.207Z,35.63
2023-04-22T16:41:17.617Z,35.58
2023-04-22T16:46:20.850Z,35.64
2023-04-22T16:51:24.037Z,36.11
2023-04-22T16:56:27.552Z,36.87
2023-04-22T17:01:31.500Z,36.77
2023-04-22T17:06:34.687Z,37.05
2023-04-22T17:11:38.521Z,37.59
2023-04-22T17:16:42.030Z,37.83
2023-04-22T17:21:45.712Z,39.43
2023-04-22T17:26:48.953Z,41.72
2023-04-22T17:31:52.740Z,42.82
2023-04-22T17:36:56.084Z,42.42
2023-04-22T17:41:59.294Z,41.47
2023-04-22T17:47:03.977Z,41.85
2023-04-22T17:52:08.379Z,42.97
2023-04-22T17:57:12.715Z,44.01
2023-04-22T18:02:16.449Z,45.25
2023-04-22T18:07:20.712Z,45.73
2023-04-22T18:12:28.575Z,46.64
2023-04-22T18:17:36.307Z,48.20
2023-04-22T18:22:40.942Z,48.22
2023-04-22T18:27:44.759Z,49.72
2023-04-22T18:32:48.812Z,51.13
2023-04-22T18:37:52.302Z,52.99
2023-04-22T18:42:55.923Z,53.28
2023-04-22T18:47:59.282Z,53.21
2023-04-22T18:53:02.755Z,53.67
2023-04-22T18:58:06.567Z,53.90
2023-04-22T19:03:11.684Z,54.67
2023-04-22T19:08:15.252Z,56.68
2023-04-22T19:13:29.314Z,55.89
2023-04-22T19:18:33.852Z,56.29
2023-04-22T19:23:39.084Z,56.87
2023-04-22T19:28:47.315Z,57.44
2023-04-22T19:33:51.759Z,58.32
2023-04-22T19:38:55.971Z,58.60
2023-04-22T19:44:01.606Z,58.45
2023-04-22T19:49:07.115Z,61.16
2023-04-22T19:54:13.348Z,67.56
2023-04-22T19:59:20.428Z,68.93
2023-04-22T20:04:26.179Z,66.59
2023-04-22T20:09:33.364Z,65.05
2023-04-22T20:14:37.300Z,63.20
2023-04-22T20:19:41.661Z,62.70
2023-04-22T20:24:46.483Z,64.43
2023-04-22T20:29:50.445Z,64.18
2023-04-22T20:34:56.469Z,63.88
2023-04-22T20:40:06.195Z,62.23
2023-04-22T20:45:15.830Z,62.50
2023-04-22T20:50:21.082Z,66.46
2023-04-22T20:55:24.605Z,68.25
2023-04-22T21:00:28.995Z,68.80
2023-04-22T21:05:33.953Z,68.18
2023-04-22T21:10:38.072Z,67.29
2023-04-22T21:15:47.260Z,66.67
2023-04-22T21:20:51.960Z,66.41
2023-04-22T21:25:56.929Z,69.85
2023-04-22T21:31:01.290Z,73.78
2023-04-22T21:36:05.476Z,72.52
2023-04-22T21:41:09.302Z,72.08
2023-04-22T21:46:12.871Z,72.56
2023-04-22T21:51:17.890Z,72.75
2023-04-22T21:56:22.227Z,71.63
2023-04-22T22:01:26.800Z,70.23
2023-04-22T22:06:30.765Z,73.17
2023-04-22T22:11:34.435Z,73.63
2023-04-22T22:16:38.874Z,73.33
2023-04-22T22:21:42.132Z,73.93
2023-04-22T22:26:45.141Z,74.51
2023-04-22T22:31:48.402Z,75.49
2023-04-22T22:36:51.969Z,75.07
2023-04-22T22:41:55.785Z,75.79
2023-04-22T22:46:59.098Z,75.61
2023-04-22T22:52:02.248Z,76.03
2023-04-22T22:57:05.920Z,73.99
2023-04-22T23:02:09.316Z,77.24
2023-04-22T23:07:12.651Z,79.84
2023-04-22T23:12:15.749Z,79.15
2023-04-22T23:17:19.116Z,76.79
2023-04-22T23:22:23.400Z,75.08
2023-04-22T23:27:26.913Z,74.24
2023-04-22T23:32:32.631Z,76.55
2023-04-22T23:37:38.105Z,77.06
2023-04-22T23:42:41.464Z,74.45
2023-04-22T23:47:44.926Z,76.46
2023-04-22T23:52:48.176Z,77.34
2023-04-22T23:57:51.691Z,76.96
